createdAt,value
2022-10-23T00:01:48.467Z,2.38
2022-10-23T00:04:19.027Z,2.25
2022-10-23T00:06:47.067Z,2.55
2022-10-23T00:09:17.496Z,2.33
2022-10-23T00:11:47.584Z,2.90
2022-10-23T00:14:16.312Z,3.08
2022-10-23T00:16:44.029Z,2.35
2022-10-23T00:19:13.350Z,2.70
2022-10-23T00:21:41.178Z,2.45
2022-10-23T00:26:42.465Z,2.30
2022-10-23T00:29:11.388Z,2.70
2022-10-23T00:31:39.302Z,2.60
2022-10-23T00:34:08.238Z,2.45
2022-10-23T00:36:38.207Z,2.25
2022-10-23T00:39:06.352Z,2.58
2022-10-23T00:41:33.913Z,2.83
2022-10-23T00:44:05.775Z,2.30
2022-10-23T00:46:34.559Z,2.70
2022-10-23T00:49:03.107Z,2.50
2022-10-23T00:54:23.010Z,2.17
2022-10-23T00:56:50.931Z,2.65
2022-10-23T00:59:18.415Z,2.33
2022-10-23T01:01:46.024Z,2.22
2022-10-23T01:04:13.647Z,2.10
2022-10-23T01:06:46.254Z,2.20
2022-10-23T01:09:22.536Z,2.65
2022-10-23T01:11:55.862Z,2.55
2022-10-23T01:14:30.127Z,2.40
2022-10-23T01:17:03.750Z,2.60
2022-10-23T01:19:47.346Z,2.00
2022-10-23T01:22:34.111Z,2.10
2022-10-23T01:25:14.894Z,2.03
2022-10-23T01:27:49.195Z,2.40
2022-10-23T01:30:18.306Z,2.03
2022-10-23T01:32:50.004Z,2.20
2022-10-23T01:35:22.038Z,2.28
2022-10-23T01:37:55.014Z,2.05
2022-10-23T01:40:26.922Z,2.15
2022-10-23T01:43:01.066Z,1.95
2022-10-23T01:45:34.087Z,2.38
2022-10-23T01:48:04.249Z,2.30
2022-10-23T01:50:33.222Z,1.70
2022-10-23T01:53:00.803Z,1.90
2022-10-23T01:55:28.411Z,2.00
2022-10-23T01:57:58.050Z,1.98
2022-10-23T02:00:25.627Z,1.88
2022-10-23T02:02:54.955Z,1.88
2022-10-23T02:05:25.283Z,1.52
2022-10-23T02:07:53.982Z,1.75
2022-10-23T02:10:22.342Z,1.63
2022-10-23T02:12:58.151Z,1.67
2022-10-23T02:15:32.442Z,1.55
2022-10-23T02:18:09.533Z,1.42
2022-10-23T02:20:41.453Z,1.67
2022-10-23T02:23:18.139Z,1.40
2022-10-23T02:25:51.778Z,2.10
2022-10-23T02:28:23.606Z,1.83
2022-10-23T02:30:54.418Z,1.75
2022-10-23T02:33:22.490Z,1.92
2022-10-23T02:35:50.653Z,1.80
2022-10-23T02:38:30.379Z,1.85
2022-10-23T02:41:01.098Z,1.90
2022-10-23T02:43:37.682Z,1.75
2022-10-23T02:46:15.515Z,1.75
2022-10-23T02:48:49.754Z,2.00
2022-10-23T02:51:24.846Z,1.70
2022-10-23T02:54:03.536Z,2.00
2022-10-23T02:56:41.289Z,1.73
2022-10-23T02:59:16.448Z,2.30
2022-10-23T03:01:51.625Z,1.80
2022-10-23T03:04:22.178Z,1.92
2022-10-23T03:06:51.283Z,2.05
2022-10-23T03:09:19.974Z,2.10
2022-10-23T03:11:47.521Z,2.03
2022-10-23T03:14:15.427Z,2.05
2022-10-23T03:16:42.894Z,2.05
2022-10-23T03:21:44.821Z,1.95
2022-10-23T03:24:12.291Z,1.60
2022-10-23T03:26:39.737Z,1.98
2022-10-23T03:29:07.270Z,1.90
2022-10-23T03:31:34.714Z,1.48
2022-10-23T03:34:04.084Z,1.73
2022-10-23T03:36:35.115Z,1.50
2022-10-23T03:39:03.962Z,1.73
2022-10-23T03:41:31.480Z,1.92
2022-10-23T03:43:59.110Z,1.73
2022-10-23T03:46:26.602Z,1.52
2022-10-23T03:48:55.350Z,1.50
2022-10-23T03:51:22.812Z,1.25
2022-10-23T03:53:51.624Z,1.63
2022-10-23T03:56:19.162Z,1.33
2022-10-23T03:58:46.654Z,1.20
2022-10-23T04:01:14.384Z,1.30
2022-10-23T04:03:41.881Z,1.75
2022-10-23T04:06:09.750Z,1.27
2022-10-23T04:08:37.211Z,1.65
2022-10-23T04:11:06.362Z,1.60
2022-10-23T04:13:33.810Z,1.40
2022-10-23T04:16:01.286Z,1.40
2022-10-23T04:18:28.754Z,1.58
2022-10-23T04:20:56.849Z,1.33
2022-10-23T04:23:24.295Z,1.30
2022-10-23T04:25:51.791Z,1.10
2022-10-23T04:28:20.582Z,1.67
2022-10-23T04:30:48.018Z,1.42
2022-10-23T04:33:15.534Z,1.33
2022-10-23T04:35:43.066Z,1.38
2022-10-23T04:38:10.586Z,1.30
2022-10-23T04:40:38.205Z,1.38
2022-10-23T04:43:06.058Z,1.77
2022-10-23T04:45:34.853Z,1.27
2022-10-23T04:48:02.607Z,1.63
2022-10-23T04:50:30.069Z,2.17
2022-10-23T04:52:58.960Z,1.80
2022-10-23T04:55:26.685Z,1.73
2022-10-23T04:57:54.127Z,1.75
2022-10-23T05:00:21.813Z,1.92
2022-10-23T05:02:50.640Z,2.28
2022-10-23T05:05:18.247Z,2.45
2022-10-23T05:07:46.052Z,2.28
2022-10-23T05:10:13.593Z,1.90
2022-10-23T05:12:41.036Z,1.77
2022-10-23T05:15:08.909Z,2.15
2022-10-23T05:17:39.271Z,2.00
2022-10-23T05:20:12.696Z,2.00
2022-10-23T05:22:43.769Z,2.05
2022-10-23T05:25:11.366Z,1.80
2022-10-23T05:27:38.857Z,2.08
2022-10-23T05:30:07.517Z,2.13
2022-10-23T05:35:07.609Z,1.58
2022-10-23T05:37:39.278Z,1.80
2022-10-23T05:40:07.840Z,2.05
2022-10-23T05:42:37.215Z,2.00
2022-10-23T05:45:08.069Z,1.80
2022-10-23T05:47:35.740Z,2.30
2022-10-23T05:50:03.229Z,1.92
2022-10-23T05:52:30.729Z,2.40
2022-10-23T05:54:59.529Z,2.42
2022-10-23T05:57:26.984Z,2.05
2022-10-23T05:59:54.469Z,1.85
2022-10-23T06:02:21.997Z,2.08
2022-10-23T06:04:49.538Z,2.20
2022-10-23T06:07:17.307Z,1.85
2022-10-23T06:09:44.764Z,1.92
2022-10-23T06:12:13.617Z,2.22
2022-10-23T06:14:41.108Z,2.20
2022-10-23T06:17:08.629Z,2.30
2022-10-23T06:19:36.112Z,1.58
2022-10-23T06:22:05.210Z,2.15
2022-10-23T06:24:32.752Z,2.40
2022-10-23T06:27:00.297Z,1.98
2022-10-23T06:29:29.268Z,1.75
2022-10-23T06:31:57.073Z,2.22
2022-10-23T06:34:24.801Z,2.33
2022-10-23T06:36:52.496Z,2.15
2022-10-23T06:39:21.168Z,2.33
2022-10-23T06:44:16.594Z,2.40
2022-10-23T06:46:47.123Z,2.60
2022-10-23T06:49:16.128Z,2.20
2022-10-23T06:51:43.793Z,1.67
2022-10-23T06:54:12.242Z,2.45
2022-10-23T06:56:39.789Z,2.33
2022-10-23T06:59:08.587Z,2.60
2022-10-23T07:01:36.713Z,3.25
2022-10-23T07:04:05.741Z,2.88
2022-10-23T07:06:33.197Z,2.90
2022-10-23T07:09:00.816Z,2.90
2022-10-23T07:11:28.391Z,2.33
2022-10-23T07:13:55.932Z,3.00
2022-10-23T07:16:24.376Z,2.08
2022-10-23T07:18:59.242Z,3.08
2022-10-23T07:21:29.521Z,3.35
2022-10-23T07:23:56.976Z,3.03
2022-10-23T07:26:24.957Z,3.70
2022-10-23T07:28:55.033Z,2.83
2022-10-23T07:31:25.663Z,1.20
2022-10-23T07:33:57.836Z,2.50
2022-10-23T07:36:25.466Z,2.25
2022-10-23T07:38:54.316Z,2.85
2022-10-23T07:41:22.222Z,3.58
2022-10-23T07:43:49.714Z,1.55
2022-10-23T07:46:17.257Z,2.45
2022-10-23T07:48:44.732Z,2.72
2022-10-23T07:51:14.296Z,2.75
2022-10-23T07:53:42.390Z,2.05
2022-10-23T07:56:17.305Z,2.42
2022-10-23T07:58:45.066Z,2.40
2022-10-23T08:01:17.935Z,2.90
2022-10-23T08:03:45.664Z,2.13
2022-10-23T08:06:13.346Z,2.60
2022-10-23T08:08:40.919Z,2.50
2022-10-23T08:11:08.611Z,1.73
2022-10-23T08:13:37.467Z,2.78
2022-10-23T08:16:05.489Z,2.25
2022-10-23T08:18:33.022Z,2.72
2022-10-23T08:21:01.720Z,2.42
2022-10-23T08:23:29.454Z,1.83
2022-10-23T08:26:01.469Z,2.08
2022-10-23T08:28:29.713Z,1.63
2022-10-23T08:30:59.300Z,2.25
2022-10-23T08:33:26.837Z,1.52
2022-10-23T08:35:54.304Z,1.70
2022-10-23T08:38:21.754Z,1.33
2022-10-23T08:40:50.488Z,2.00
2022-10-23T08:43:23.561Z,1.67
2022-10-23T08:45:56.488Z,1.58
2022-10-23T08:48:29.493Z,1.50
2022-10-23T08:51:00.408Z,1.73
2022-10-23T08:53:33.706Z,1.55
2022-10-23T08:56:05.332Z,0.95
2022-10-23T08:58:40.645Z,1.33
2022-10-23T09:01:29.372Z,1.58
2022-10-23T09:03:58.600Z,1.70
2022-10-23T09:06:35.177Z,1.40
2022-10-23T09:09:18.485Z,1.25
2022-10-23T09:11:53.465Z,1.30
2022-10-23T09:14:43.406Z,0.95
2022-10-23T09:17:19.271Z,1.50
2022-10-23T09:19:48.151Z,1.10
2022-10-23T09:22:15.635Z,1.33
2022-10-23T09:24:44.287Z,1.33
2022-10-23T09:27:16.679Z,1.50
2022-10-23T09:29:50.364Z,0.98
2022-10-23T09:32:18.296Z,1.42
2022-10-23T09:34:55.238Z,1.10
2022-10-23T09:37:25.380Z,0.88
2022-10-23T09:40:03.519Z,1.20
2022-10-23T09:42:31.081Z,0.80
2022-10-23T09:44:58.698Z,1.05
2022-10-23T09:47:28.003Z,1.23
2022-10-23T09:49:58.684Z,1.02
2022-10-23T09:52:31.591Z,0.93
2022-10-23T09:55:01.216Z,0.90
2022-10-23T09:57:32.691Z,0.90
2022-10-23T10:00:03.014Z,0.85
2022-10-23T10:02:32.904Z,0.85
2022-10-23T10:05:21.919Z,0.60
2022-10-23T10:07:56.920Z,0.50
2022-10-23T10:10:24.839Z,0.70
2022-10-23T10:12:59.347Z,0.70
2022-10-23T10:18:11.431Z,0.57
2022-10-23T10:20:52.524Z,0.93
2022-10-23T10:23:29.795Z,0.57
2022-10-23T10:26:08.196Z,0.50
2022-10-23T10:28:51.238Z,0.30
2022-10-23T10:31:25.446Z,0.90
2022-10-23T10:34:03.587Z,0.50
2022-10-23T10:36:47.935Z,0.70
2022-10-23T10:39:26.666Z,0.70
2022-10-23T10:42:05.215Z,0.80
2022-10-23T10:44:47.867Z,0.70
2022-10-23T10:47:22.691Z,0.50
2022-10-23T10:50:04.395Z,0.80
2022-10-23T10:52:39.047Z,0.65
2022-10-23T10:55:18.724Z,0.47
2022-10-23T10:57:49.552Z,0.80
2022-10-23T11:00:19.691Z,0.63
2022-10-23T11:02:49.700Z,0.52
2022-10-23T11:05:27.611Z,0.60
2022-10-23T11:08:00.639Z,0.70
2022-10-23T11:10:29.268Z,0.70
2022-10-23T11:12:57.823Z,0.60
2022-10-23T11:15:34.896Z,0.08
2022-10-23T11:18:05.995Z,0.47
2022-10-23T11:20:46.506Z,0.60
2022-10-23T11:23:40.723Z,0.70
2022-10-23T11:26:27.031Z,0.50
2022-10-23T11:29:12.238Z,0.60
2022-10-23T11:31:45.067Z,0.68
2022-10-23T11:35:01.132Z,0.25
2022-10-23T11:37:28.788Z,0.50
2022-10-23T11:40:20.454Z,0.60
2022-10-23T11:42:50.387Z,0.60
2022-10-23T11:45:31.911Z,0.60
2022-10-23T11:48:00.790Z,0.60
2022-10-23T11:50:31.155Z,0.50
2022-10-23T11:53:19.556Z,0.55
2022-10-23T11:56:00.858Z,0.57
2022-10-23T11:58:32.959Z,0.52
2022-10-23T12:01:05.155Z,0.60
2022-10-23T12:03:48.486Z,0.60
2022-10-23T12:06:23.781Z,0.60
2022-10-23T12:08:54.617Z,0.30
2022-10-23T12:11:45.071Z,0.43
2022-10-23T12:14:33.668Z,0.70
2022-10-23T12:17:01.871Z,0.45
2022-10-23T12:19:30.859Z,0.68
2022-10-23T12:22:01.308Z,0.20
2022-10-23T12:24:56.324Z,0.50
2022-10-23T12:27:34.263Z,0.60
2022-10-23T12:30:15.367Z,0.65
2022-10-23T12:32:54.584Z,0.90
2022-10-23T12:35:53.363Z,0.85
2022-10-23T12:38:25.294Z,0.60
2022-10-23T12:40:55.104Z,0.70
2022-10-23T12:43:29.475Z,0.60
2022-10-23T12:46:01.539Z,0.70
2022-10-23T12:48:29.042Z,0.88
2022-10-23T12:50:57.338Z,0.50
2022-10-23T12:53:25.140Z,0.70
2022-10-23T12:55:57.174Z,0.77
2022-10-23T12:58:29.962Z,0.65
2022-10-23T13:00:59.129Z,0.85
2022-10-23T13:03:29.811Z,0.70
2022-10-23T13:06:00.231Z,0.77
2022-10-23T13:08:33.006Z,0.75
2022-10-23T13:11:01.447Z,0.85
2022-10-23T13:13:30.451Z,0.77
2022-10-23T13:15:58.118Z,0.73
2022-10-23T13:18:25.619Z,0.80
2022-10-23T13:20:59.147Z,1.08
2022-10-23T13:23:31.461Z,0.77
2022-10-23T13:26:00.222Z,0.93
2022-10-23T13:28:30.570Z,0.80
2022-10-23T13:31:04.779Z,0.77
2022-10-23T13:33:35.766Z,0.60
2022-10-23T13:36:06.150Z,0.70
2022-10-23T13:38:35.834Z,0.90
2022-10-23T13:41:05.883Z,0.50
2022-10-23T13:43:35.266Z,0.75
2022-10-23T13:46:02.778Z,0.90
2022-10-23T13:48:31.210Z,0.65
2022-10-23T13:51:07.985Z,1.15
2022-10-23T13:53:35.474Z,0.43
2022-10-23T13:56:02.936Z,0.70
2022-10-23T13:58:30.443Z,0.73
2022-10-23T14:00:59.849Z,0.80
2022-10-23T14:03:27.415Z,0.65
2022-10-23T14:05:54.847Z,0.80
2022-10-23T14:08:22.567Z,0.80
2022-10-23T14:10:50.048Z,1.20
2022-10-23T14:13:18.591Z,0.90
2022-10-23T14:15:53.370Z,0.90
2022-10-23T14:18:22.239Z,1.13
2022-10-23T14:20:49.694Z,0.90
2022-10-23T14:23:19.917Z,1.00
2022-10-23T14:25:47.378Z,1.23
2022-10-23T14:28:14.874Z,1.20
2022-10-23T14:30:42.374Z,1.38
2022-10-23T14:33:09.843Z,1.08
2022-10-23T14:35:43.186Z,1.00
2022-10-23T14:38:10.702Z,0.88
2022-10-23T14:40:38.459Z,1.40
2022-10-23T14:43:05.942Z,0.90
2022-10-23T14:45:33.446Z,1.25
2022-10-23T14:48:02.415Z,1.33
2022-10-23T14:50:31.967Z,1.38
2022-10-23T14:55:33.224Z,1.17
2022-10-23T14:58:00.718Z,1.30
2022-10-23T15:00:28.299Z,0.70
2022-10-23T15:02:55.826Z,1.15
2022-10-23T15:05:23.391Z,1.30
2022-10-23T15:07:50.897Z,1.63
2022-10-23T15:10:19.884Z,1.52
2022-10-23T15:12:47.378Z,1.58
2022-10-23T15:15:14.963Z,1.63
2022-10-23T15:17:42.445Z,1.50
2022-10-23T15:20:10.985Z,1.65
2022-10-23T15:22:38.475Z,1.95
2022-10-23T15:25:07.183Z,1.52
2022-10-23T15:27:36.151Z,1.70
2022-10-23T15:30:03.984Z,1.58
2022-10-23T15:32:31.427Z,1.60
2022-10-23T15:34:59.997Z,1.35
2022-10-23T15:37:30.433Z,1.80
2022-10-23T15:40:01.224Z,2.55
2022-10-23T15:42:29.963Z,2.20
2022-10-23T15:44:58.863Z,1.50
2022-10-23T15:47:26.429Z,1.85
2022-10-23T15:49:56.950Z,1.60
2022-10-23T15:52:24.430Z,1.65
2022-10-23T15:54:51.893Z,1.70
2022-10-23T15:57:19.394Z,1.52
2022-10-23T15:59:47.770Z,1.77
2022-10-23T16:04:44.071Z,1.60
2022-10-23T16:07:11.585Z,1.75
2022-10-23T16:09:39.059Z,1.83
2022-10-23T16:12:07.106Z,1.38
2022-10-23T16:14:34.593Z,1.48
2022-10-23T16:17:02.086Z,1.70
2022-10-23T16:19:30.925Z,1.75
2022-10-23T16:21:58.454Z,1.52
2022-10-23T16:24:25.969Z,1.40
2022-10-23T16:26:56.253Z,2.17
2022-10-23T16:29:25.524Z,1.83
2022-10-23T16:31:54.457Z,1.80
2022-10-23T16:34:22.029Z,1.40
2022-10-23T16:36:51.005Z,1.92
2022-10-23T16:39:20.233Z,2.05
2022-10-23T16:41:47.690Z,2.55
2022-10-23T16:44:15.294Z,1.80
2022-10-23T16:46:42.758Z,1.90
2022-10-23T16:49:13.821Z,1.73
2022-10-23T16:51:41.293Z,1.83
2022-10-23T16:54:10.446Z,1.80
2022-10-23T16:56:37.939Z,2.15
2022-10-23T16:59:06.644Z,1.90
2022-10-23T17:01:34.758Z,2.40
2022-10-23T17:04:02.384Z,2.05
2022-10-23T17:06:31.813Z,1.90
2022-10-23T17:09:00.579Z,1.65
2022-10-23T17:11:30.818Z,1.90
2022-10-23T17:14:02.643Z,1.95
2022-10-23T17:16:32.224Z,2.15
2022-10-23T17:19:00.095Z,2.05
2022-10-23T17:21:27.676Z,2.17
2022-10-23T17:23:55.207Z,1.70
2022-10-23T17:26:23.191Z,2.05
2022-10-23T17:31:52.497Z,2.05
2022-10-23T17:34:22.584Z,2.05
2022-10-23T17:36:52.342Z,2.03
2022-10-23T17:39:22.007Z,2.40
2022-10-23T17:41:50.157Z,2.10
2022-10-23T17:44:18.009Z,2.28
2022-10-23T17:46:45.487Z,2.25
2022-10-23T17:49:14.302Z,2.25
2022-10-23T17:51:42.203Z,1.73
2022-10-23T17:54:14.452Z,2.22
2022-10-23T17:56:41.947Z,2.38
2022-10-23T17:59:12.773Z,2.60
2022-10-23T18:01:42.603Z,2.65
2022-10-23T18:04:10.481Z,2.10
2022-10-23T18:06:45.357Z,2.08
2022-10-23T18:09:13.061Z,2.25
2022-10-23T18:11:45.267Z,2.10
2022-10-23T18:14:14.847Z,2.20
2022-10-23T18:16:42.645Z,2.00
2022-10-23T18:19:11.728Z,2.60
2022-10-23T18:21:40.534Z,2.15
2022-10-23T18:24:08.105Z,2.50
2022-10-23T18:26:38.968Z,2.65
2022-10-23T18:29:08.477Z,2.30
2022-10-23T18:31:37.139Z,2.45
2022-10-23T18:34:07.631Z,2.30
2022-10-23T18:36:38.241Z,2.20
2022-10-23T18:39:08.857Z,2.17
2022-10-23T18:41:38.849Z,2.05
2022-10-23T18:44:07.408Z,2.60
2022-10-23T18:46:35.250Z,2.25
2022-10-23T18:49:02.842Z,2.70
2022-10-23T18:51:33.700Z,2.42
2022-10-23T18:54:02.293Z,2.63
2022-10-23T18:56:31.357Z,2.67
2022-10-23T18:59:01.625Z,2.60
2022-10-23T19:01:30.619Z,3.03
2022-10-23T19:04:00.005Z,2.50
2022-10-23T19:06:29.347Z,2.17
2022-10-23T19:08:57.145Z,2.63
2022-10-23T19:11:27.098Z,2.60
2022-10-23T19:13:55.966Z,2.00
2022-10-23T19:16:26.378Z,2.17
2022-10-23T19:18:57.478Z,2.28
2022-10-23T19:21:30.985Z,2.58
2022-10-23T19:24:01.186Z,2.60
2022-10-23T19:26:30.721Z,1.73
2022-10-23T19:29:00.015Z,1.50
2022-10-23T19:31:27.906Z,1.80
2022-10-23T19:33:55.411Z,1.80
2022-10-23T19:36:23.700Z,2.10
2022-10-23T19:41:18.843Z,1.70
2022-10-23T19:43:46.364Z,1.63
2022-10-23T19:46:16.099Z,1.98
2022-10-23T19:48:44.846Z,1.65
2022-10-23T19:51:13.726Z,2.63
2022-10-23T19:53:42.522Z,2.22
2022-10-23T19:56:12.335Z,2.28
2022-10-23T19:58:40.616Z,2.10
2022-10-23T20:01:09.913Z,2.00
2022-10-23T20:03:39.019Z,1.90
2022-10-23T20:06:09.379Z,1.50
2022-10-23T20:08:36.872Z,3.05
2022-10-23T20:11:04.520Z,2.25
2022-10-23T20:13:31.996Z,2.90
2022-10-23T20:15:59.787Z,2.80
2022-10-23T20:18:27.468Z,2.10
2022-10-23T20:20:56.278Z,1.83
2022-10-23T20:23:23.840Z,2.53
2022-10-23T20:25:51.309Z,2.30
2022-10-23T20:28:18.890Z,2.30
2022-10-23T20:30:46.412Z,1.88
2022-10-23T20:33:13.907Z,1.90
2022-10-23T20:35:42.610Z,2.00
2022-10-23T20:38:11.652Z,2.17
2022-10-23T20:40:39.075Z,2.33
2022-10-23T20:43:06.551Z,2.10
2022-10-23T20:45:34.785Z,2.35
2022-10-23T20:48:02.266Z,1.77
2022-10-23T20:50:29.726Z,1.75
2022-10-23T20:52:57.194Z,1.48
2022-10-23T20:55:26.051Z,1.48
2022-10-23T20:57:54.026Z,1.55
2022-10-23T21:00:21.687Z,1.88
2022-10-23T21:02:52.115Z,1.80
2022-10-23T21:05:19.996Z,1.85
2022-10-23T21:07:47.458Z,2.10
2022-10-23T21:10:14.912Z,1.85
2022-10-23T21:12:43.966Z,2.00
2022-10-23T21:15:11.950Z,2.10
2022-10-23T21:17:40.790Z,1.92
2022-10-23T21:20:08.758Z,1.60
2022-10-23T21:22:36.248Z,1.55
2022-10-23T21:25:03.968Z,1.77
2022-10-23T21:27:31.752Z,1.80
2022-10-23T21:30:00.564Z,1.88
2022-10-23T21:32:28.080Z,2.17
2022-10-23T21:34:55.804Z,1.50
2022-10-23T21:37:24.880Z,1.80
2022-10-23T21:39:52.344Z,2.13
2022-10-23T21:42:19.891Z,1.38
2022-10-23T21:44:47.368Z,1.77
2022-10-23T21:47:16.297Z,1.80
2022-10-23T21:49:43.988Z,1.83
2022-10-23T21:52:13.171Z,1.58
2022-10-23T21:54:42.640Z,2.00
2022-10-23T21:57:14.099Z,2.10
2022-10-23T21:59:41.876Z,1.70
2022-10-23T22:02:10.034Z,1.80
2022-10-23T22:04:39.358Z,1.58
2022-10-23T22:07:07.469Z,2.03
2022-10-23T22:09:35.592Z,1.52
2022-10-23T22:12:03.086Z,1.33
2022-10-23T22:14:30.736Z,1.60
2022-10-23T22:16:58.772Z,1.50
2022-10-23T22:19:26.444Z,1.45
2022-10-23T22:21:55.509Z,1.35
2022-10-23T22:24:22.969Z,1.30
2022-10-23T22:26:52.384Z,1.40
2022-10-23T22:29:22.999Z,0.25
2022-10-23T22:31:50.701Z,1.35
2022-10-23T22:34:28.810Z,1.20
2022-10-23T22:37:10.321Z,1.27
2022-10-23T22:39:38.284Z,0.98
2022-10-23T22:42:05.824Z,1.35
2022-10-23T22:44:33.356Z,1.38
2022-10-23T22:47:00.821Z,1.17
2022-10-23T22:49:28.336Z,1.13
2022-10-23T22:51:55.796Z,1.02
2022-10-23T22:54:24.742Z,0.80
2022-10-23T22:56:52.219Z,1.05
2022-10-23T22:59:19.688Z,0.82
2022-10-23T23:01:48.977Z,1.05
2022-10-23T23:04:37.756Z,1.08
2022-10-23T23:07:05.792Z,0.80
2022-10-23T23:09:36.676Z,0.80
2022-10-23T23:12:04.417Z,1.00
2022-10-23T23:14:31.871Z,0.55
2022-10-23T23:16:59.393Z,0.32
2022-10-23T23:19:28.419Z,0.40
2022-10-23T23:21:56.604Z,0.38
2022-10-23T23:24:24.336Z,0.77
2022-10-23T23:26:53.228Z,0.63
2022-10-23T23:29:20.701Z,0.77
2022-10-23T23:31:48.167Z,0.40
2022-10-23T23:34:15.612Z,1.13
2022-10-23T23:36:43.179Z,0.40
2022-10-23T23:39:11.064Z,0.60
2022-10-23T23:41:38.765Z,0.60
2022-10-23T23:44:08.318Z,0.45
2022-10-23T23:46:35.830Z,0.45
2022-10-23T23:49:03.272Z,0.30
2022-10-23T23:51:30.775Z,0.25
2022-10-23T23:53:58.264Z,0.82
2022-10-23T23:56:25.841Z,0.77
2022-10-23T23:58:53.452Z,0.77
